Jiuquan, China
Current Conditions -  °F | °C
As of 2:00 PM on Saturday 25 Oct 2014 (Local Time) from ZLLL Reporting Station
Clear Clear  
Wind Chill: 63°   Ceiling: Unl
Heat Index: 63°   Visibility: 6mi
Dew Point: 34°   Wind: 4mph
Humidity: 34%   Direction: NA
Pressure: 30.09"   Gusts: NA
Location:  39.75°N, 98.51°E
Report Text: ZLLL 250600Z VRB02MPS CAVOK 17/01 Q1019 NOSIG
Loading
Personal Weather Stations






























Interactive Weather Map
Tropical Storm Tracking
New forecast layout! Learn more

10-Day Weather Forecast

Advertisements
Track Severe Weather on mobile